sensor_id;sensor_type;location;lat;lon;timestamp;temperature;humidity
49441;DHT22;35317;51.978;6.296;2023-07-02T00:04:39;18.40;95.20
49441;DHT22;35317;51.978;6.296;2023-07-02T00:09:40;18.30;95.30
49441;DHT22;35317;51.978;6.296;2023-07-02T00:14:40;18.30;95.40
49441;DHT22;35317;51.978;6.296;2023-07-02T00:19:41;18.30;95.50
49441;DHT22;35317;51.978;6.296;2023-07-02T00:24:42;18.30;95.70
49441;DHT22;35317;51.978;6.296;2023-07-02T00:29:43;18.30;95.80
49441;DHT22;35317;51.978;6.296;2023-07-02T00:34:44;18.30;96.00
49441;DHT22;35317;51.978;6.296;2023-07-02T00:39:44;18.30;96.10
49441;DHT22;35317;51.978;6.296;2023-07-02T00:44:45;18.30;96.20
49441;DHT22;35317;51.978;6.296;2023-07-02T00:49:46;18.30;96.20
49441;DHT22;35317;51.978;6.296;2023-07-02T00:54:47;18.30;96.30
49441;DHT22;35317;51.978;6.296;2023-07-02T00:59:48;18.30;96.40
49441;DHT22;35317;51.978;6.296;2023-07-02T01:04:48;18.30;96.50
49441;DHT22;35317;51.978;6.296;2023-07-02T01:09:50;18.30;96.60
49441;DHT22;35317;51.978;6.296;2023-07-02T01:14:53;18.40;96.70
49441;DHT22;35317;51.978;6.296;2023-07-02T01:19:57;18.40;96.70
49441;DHT22;35317;51.978;6.296;2023-07-02T01:24:59;18.40;96.80
49441;DHT22;35317;51.978;6.296;2023-07-02T01:29:59;18.30;97.20
49441;DHT22;35317;51.978;6.296;2023-07-02T01:35:00;18.20;97.50
49441;DHT22;35317;51.978;6.296;2023-07-02T01:40:01;18.10;97.60
49441;DHT22;35317;51.978;6.296;2023-07-02T01:45:04;18.00;97.40
49441;DHT22;35317;51.978;6.296;2023-07-02T01:50:05;17.80;97.10
49441;DHT22;35317;51.978;6.296;2023-07-02T01:55:07;17.70;97.10
49441;DHT22;35317;51.978;6.296;2023-07-02T02:00:08;17.60;96.80
49441;DHT22;35317;51.978;6.296;2023-07-02T02:05:10;17.50;96.60
49441;DHT22;35317;51.978;6.296;2023-07-02T02:10:10;17.50;96.60
49441;DHT22;35317;51.978;6.296;2023-07-02T02:15:11;17.40;96.40
49441;DHT22;35317;51.978;6.296;2023-07-02T02:20:14;17.30;96.40
49441;DHT22;35317;51.978;6.296;2023-07-02T02:25:15;17.20;96.40
49441;DHT22;35317;51.978;6.296;2023-07-02T02:30:16;17.00;96.30
49441;DHT22;35317;51.978;6.296;2023-07-02T02:35:17;17.00;96.30
49441;DHT22;35317;51.978;6.296;2023-07-02T02:40:18;16.90;96.30
49441;DHT22;35317;51.978;6.296;2023-07-02T02:45:18;16.80;96.30
49441;DHT22;35317;51.978;6.296;2023-07-02T02:50:20;16.70;96.20
49441;DHT22;35317;51.978;6.296;2023-07-02T02:55:21;16.60;96.20
49441;DHT22;35317;51.978;6.296;2023-07-02T03:00:21;16.50;96.20
49441;DHT22;35317;51.978;6.296;2023-07-02T03:05:22;16.40;96.30
49441;DHT22;35317;51.978;6.296;2023-07-02T03:10:23;16.20;96.30
49441;DHT22;35317;51.978;6.296;2023-07-02T03:15:24;16.20;96.30
49441;DHT22;35317;51.978;6.296;2023-07-02T03:20:25;16.10;96.40
49441;DHT22;35317;51.978;6.296;2023-07-02T03:25:25;16.10;96.40
49441;DHT22;35317;51.978;6.296;2023-07-02T03:30:26;16.00;96.50
49441;DHT22;35317;51.978;6.296;2023-07-02T03:35:27;16.00;96.60
49441;DHT22;35317;51.978;6.296;2023-07-02T03:40:28;16.00;96.60
49441;DHT22;35317;51.978;6.296;2023-07-02T03:45:29;16.00;96.70
49441;DHT22;35317;51.978;6.296;2023-07-02T03:50:29;16.00;96.80
49441;DHT22;35317;51.978;6.296;2023-07-02T03:55:31;16.00;96.80
49441;DHT22;35317;51.978;6.296;2023-07-02T04:00:31;16.00;96.80
49441;DHT22;35317;51.978;6.296;2023-07-02T04:05:32;16.00;96.90
49441;DHT22;35317;51.978;6.296;2023-07-02T04:10:33;16.00;96.90
49441;DHT22;35317;51.978;6.296;2023-07-02T04:15:34;16.00;96.90
49441;DHT22;35317;51.978;6.296;2023-07-02T04:20:35;16.00;96.90
49441;DHT22;35317;51.978;6.296;2023-07-02T04:25:38;16.10;96.90
49441;DHT22;35317;51.978;6.296;2023-07-02T04:30:39;16.10;97.00
49441;DHT22;35317;51.978;6.296;2023-07-02T04:35:40;16.10;96.90
49441;DHT22;35317;51.978;6.296;2023-07-02T04:40:41;16.10;96.90
49441;DHT22;35317;51.978;6.296;2023-07-02T04:45:45;16.10;96.90
49441;DHT22;35317;51.978;6.296;2023-07-02T04:50:48;16.20;96.90
49441;DHT22;35317;51.978;6.296;2023-07-02T04:55:49;16.40;96.90
49441;DHT22;35317;51.978;6.296;2023-07-02T05:00:50;16.50;96.60
49441;DHT22;35317;51.978;6.296;2023-07-02T05:05:50;16.70;96.50
49441;DHT22;35317;51.978;6.296;2023-07-02T05:10:51;16.80;96.10
49441;DHT22;35317;51.978;6.296;2023-07-02T05:15:52;16.80;95.80
49441;DHT22;35317;51.978;6.296;2023-07-02T05:20:53;16.80;95.60
49441;DHT22;35317;51.978;6.296;2023-07-02T05:25:54;16.80;95.40
49441;DHT22;35317;51.978;6.296;2023-07-02T05:30:55;16.90;95.40
49441;DHT22;35317;51.978;6.296;2023-07-02T05:35:56;17.10;95.10
49441;DHT22;35317;51.978;6.296;2023-07-02T05:40:56;17.40;94.90
49441;DHT22;35317;51.978;6.296;2023-07-02T05:45:58;17.50;94.50
49441;DHT22;35317;51.978;6.296;2023-07-02T05:51:02;17.60;94.20
49441;DHT22;35317;51.978;6.296;2023-07-02T05:56:03;17.70;93.80
49441;DHT22;35317;51.978;6.296;2023-07-02T06:01:04;17.90;93.30
49441;DHT22;35317;51.978;6.296;2023-07-02T06:06:06;17.90;92.60
49441;DHT22;35317;51.978;6.296;2023-07-02T06:11:08;17.90;92.20
49441;DHT22;35317;51.978;6.296;2023-07-02T06:16:10;17.90;91.50
49441;DHT22;35317;51.978;6.296;2023-07-02T06:21:10;17.80;91.10
49441;DHT22;35317;51.978;6.296;2023-07-02T06:26:11;17.80;90.70
49441;DHT22;35317;51.978;6.296;2023-07-02T06:31:12;17.90;90.70
49441;DHT22;35317;51.978;6.296;2023-07-02T06:36:13;17.90;90.70
49441;DHT22;35317;51.978;6.296;2023-07-02T06:41:15;18.10;90.00
49441;DHT22;35317;51.978;6.296;2023-07-02T06:46:16;18.00;89.20
49441;DHT22;35317;51.978;6.296;2023-07-02T06:51:18;18.20;88.60
49441;DHT22;35317;51.978;6.296;2023-07-02T07:03:20;18.40;86.20
49441;DHT22;35317;51.978;6.296;2023-07-02T07:08:20;18.60;85.60
49441;DHT22;35317;51.978;6.296;2023-07-02T07:13:21;18.90;84.90
49441;DHT22;35317;51.978;6.296;2023-07-02T07:18:22;19.10;83.70
49441;DHT22;35317;51.978;6.296;2023-07-02T07:23:23;19.20;82.20
49441;DHT22;35317;51.978;6.296;2023-07-02T07:28:23;19.30;81.10
49441;DHT22;35317;51.978;6.296;2023-07-02T07:33:24;19.40;80.70
49441;DHT22;35317;51.978;6.296;2023-07-02T07:38:25;19.60;81.00
49441;DHT22;35317;51.978;6.296;2023-07-02T07:43:26;19.80;79.60
49441;DHT22;35317;51.978;6.296;2023-07-02T07:48:27;19.90;77.40
49441;DHT22;35317;51.978;6.296;2023-07-02T07:53:28;19.80;77.40
49441;DHT22;35317;51.978;6.296;2023-07-02T07:58:29;19.70;76.80
49441;DHT22;35317;51.978;6.296;2023-07-02T08:03:29;19.70;75.10
49441;DHT22;35317;51.978;6.296;2023-07-02T08:08:30;19.70;74.50
49441;DHT22;35317;51.978;6.296;2023-07-02T08:13:31;19.60;75.20
49441;DHT22;35317;51.978;6.296;2023-07-02T08:18:32;19.60;75.80
49441;DHT22;35317;51.978;6.296;2023-07-02T08:23:33;19.60;75.10
49441;DHT22;35317;51.978;6.296;2023-07-02T08:28:34;19.60;74.80
49441;DHT22;35317;51.978;6.296;2023-07-02T08:33:35;19.70;73.90
49441;DHT22;35317;51.978;6.296;2023-07-02T08:38:35;19.70;74.10
49441;DHT22;35317;51.978;6.296;2023-07-02T08:43:36;19.90;74.10
49441;DHT22;35317;51.978;6.296;2023-07-02T08:48:38;19.90;72.90
49441;DHT22;35317;51.978;6.296;2023-07-02T08:53:38;20.30;70.90
49441;DHT22;35317;51.978;6.296;2023-07-02T08:58:39;20.50;66.60
49441;DHT22;35317;51.978;6.296;2023-07-02T09:03:41;20.60;65.50
49441;DHT22;35317;51.978;6.296;2023-07-02T09:08:41;20.50;64.50
49441;DHT22;35317;51.978;6.296;2023-07-02T09:13:46;20.40;65.60
49441;DHT22;35317;51.978;6.296;2023-07-02T09:19:03;20.40;65.00
49441;DHT22;35317;51.978;6.296;2023-07-02T09:24:18;20.20;65.00
49441;DHT22;35317;51.978;6.296;2023-07-02T09:29:33;20.20;66.00
49441;DHT22;35317;51.978;6.296;2023-07-02T09:34:35;20.30;65.60
49441;DHT22;35317;51.978;6.296;2023-07-02T09:39:37;20.60;64.70
49441;DHT22;35317;51.978;6.296;2023-07-02T09:44:39;21.00;63.10
49441;DHT22;35317;51.978;6.296;2023-07-02T09:49:49;21.20;62.20
49441;DHT22;35317;51.978;6.296;2023-07-02T09:54:54;21.10;61.40
49441;DHT22;35317;51.978;6.296;2023-07-02T09:59:54;21.10;61.60
49441;DHT22;35317;51.978;6.296;2023-07-02T10:04:55;21.30;60.90
49441;DHT22;35317;51.978;6.296;2023-07-02T10:09:57;21.70;58.70
49441;DHT22;35317;51.978;6.296;2023-07-02T10:14:59;21.90;57.40
49441;DHT22;35317;51.978;6.296;2023-07-02T10:20:08;22.00;57.20
49441;DHT22;35317;51.978;6.296;2023-07-02T10:25:11;21.80;57.50
49441;DHT22;35317;51.978;6.296;2023-07-02T10:30:12;21.80;57.20
49441;DHT22;35317;51.978;6.296;2023-07-02T10:35:17;22.00;54.90
49441;DHT22;35317;51.978;6.296;2023-07-02T10:40:18;22.10;53.80
49441;DHT22;35317;51.978;6.296;2023-07-02T10:45:20;21.80;53.90
49441;DHT22;35317;51.978;6.296;2023-07-02T10:50:21;21.90;54.00
49441;DHT22;35317;51.978;6.296;2023-07-02T10:55:25;21.80;54.00
49441;DHT22;35317;51.978;6.296;2023-07-02T11:00:26;21.90;53.70
49441;DHT22;35317;51.978;6.296;2023-07-02T11:05:27;22.00;54.10
49441;DHT22;35317;51.978;6.296;2023-07-02T11:10:27;22.30;53.50
49441;DHT22;35317;51.978;6.296;2023-07-02T11:15:35;22.60;52.90
49441;DHT22;35317;51.978;6.296;2023-07-02T11:20:38;22.90;51.60
49441;DHT22;35317;51.978;6.296;2023-07-02T11:25:40;22.90;51.50
49441;DHT22;35317;51.978;6.296;2023-07-02T11:30:47;22.80;51.90
49441;DHT22;35317;51.978;6.296;2023-07-02T11:35:48;22.80;51.20
49441;DHT22;35317;51.978;6.296;2023-07-02T11:40:48;22.70;50.90
49441;DHT22;35317;51.978;6.296;2023-07-02T11:45:49;22.80;51.70
49441;DHT22;35317;51.978;6.296;2023-07-02T11:50:50;22.80;52.10
49441;DHT22;35317;51.978;6.296;2023-07-02T11:55:53;23.10;51.20
49441;DHT22;35317;51.978;6.296;2023-07-02T12:00:54;22.80;51.30
49441;DHT22;35317;51.978;6.296;2023-07-02T12:05:55;22.80;52.10
49441;DHT22;35317;51.978;6.296;2023-07-02T12:10:55;22.90;50.90
49441;DHT22;35317;51.978;6.296;2023-07-02T12:15:56;23.00;50.70
49441;DHT22;35317;51.978;6.296;2023-07-02T12:20:57;22.70;50.40
49441;DHT22;35317;51.978;6.296;2023-07-02T12:25:58;23.00;50.60
49441;DHT22;35317;51.978;6.296;2023-07-02T12:30:58;23.30;49.70
49441;DHT22;35317;51.978;6.296;2023-07-02T12:36:00;23.30;49.10
49441;DHT22;35317;51.978;6.296;2023-07-02T12:41:01;23.10;48.70
49441;DHT22;35317;51.978;6.296;2023-07-02T12:46:02;22.90;49.30
49441;DHT22;35317;51.978;6.296;2023-07-02T12:51:03;22.80;49.00
49441;DHT22;35317;51.978;6.296;2023-07-02T12:56:04;22.80;49.00
49441;DHT22;35317;51.978;6.296;2023-07-02T13:01:05;23.10;48.60
49441;DHT22;35317;51.978;6.296;2023-07-02T13:06:06;23.60;48.80
49441;DHT22;35317;51.978;6.296;2023-07-02T13:11:07;23.90;47.20
49441;DHT22;35317;51.978;6.296;2023-07-02T13:16:08;24.20;45.80
49441;DHT22;35317;51.978;6.296;2023-07-02T13:21:09;24.20;45.20
49441;DHT22;35317;51.978;6.296;2023-07-02T13:26:10;24.10;45.30
49441;DHT22;35317;51.978;6.296;2023-07-02T13:31:11;23.60;45.50
49441;DHT22;35317;51.978;6.296;2023-07-02T13:36:12;23.90;46.10
49441;DHT22;35317;51.978;6.296;2023-07-02T13:41:13;24.00;45.50
49441;DHT22;35317;51.978;6.296;2023-07-02T13:46:13;23.80;45.70
49441;DHT22;35317;51.978;6.296;2023-07-02T13:51:14;23.80;46.10
49441;DHT22;35317;51.978;6.296;2023-07-02T13:56:15;23.90;46.60
49441;DHT22;35317;51.978;6.296;2023-07-02T14:01:16;24.20;45.60
49441;DHT22;35317;51.978;6.296;2023-07-02T14:06:17;24.50;45.70
49441;DHT22;35317;51.978;6.296;2023-07-02T14:11:18;24.60;45.90
49441;DHT22;35317;51.978;6.296;2023-07-02T14:16:19;24.50;46.50
49441;DHT22;35317;51.978;6.296;2023-07-02T14:21:20;24.40;46.70
49441;DHT22;35317;51.978;6.296;2023-07-02T14:26:21;24.30;47.50
49441;DHT22;35317;51.978;6.296;2023-07-02T14:31:21;24.20;47.80
49441;DHT22;35317;51.978;6.296;2023-07-02T14:36:22;24.20;47.90
49441;DHT22;35317;51.978;6.296;2023-07-02T14:41:23;24.30;48.10
49441;DHT22;35317;51.978;6.296;2023-07-02T14:46:23;24.30;48.70
49441;DHT22;35317;51.978;6.296;2023-07-02T14:51:27;24.30;48.80
49441;DHT22;35317;51.978;6.296;2023-07-02T14:56:28;24.50;48.50
49441;DHT22;35317;51.978;6.296;2023-07-02T15:01:30;24.50;48.10
49441;DHT22;35317;51.978;6.296;2023-07-02T15:06:32;24.60;47.50
49441;DHT22;35317;51.978;6.296;2023-07-02T15:11:33;24.70;47.70
49441;DHT22;35317;51.978;6.296;2023-07-02T15:16:34;24.90;47.40
49441;DHT22;35317;51.978;6.296;2023-07-02T15:21:35;25.00;46.50
49441;DHT22;35317;51.978;6.296;2023-07-02T15:26:36;24.90;46.80
49441;DHT22;35317;51.978;6.296;2023-07-02T15:31:37;25.00;47.40
49441;DHT22;35317;51.978;6.296;2023-07-02T15:36:41;25.10;46.70
49441;DHT22;35317;51.978;6.296;2023-07-02T15:41:42;25.00;47.00
49441;DHT22;35317;51.978;6.296;2023-07-02T15:46:47;25.10;46.80
49441;DHT22;35317;51.978;6.296;2023-07-02T15:51:48;25.10;45.50
49441;DHT22;35317;51.978;6.296;2023-07-02T15:56:49;24.80;44.90
49441;DHT22;35317;51.978;6.296;2023-07-02T16:01:50;24.60;44.70
49441;DHT22;35317;51.978;6.296;2023-07-02T16:06:51;24.30;45.30
49441;DHT22;35317;51.978;6.296;2023-07-02T16:11:52;24.10;45.00
49441;DHT22;35317;51.978;6.296;2023-07-02T16:17:02;23.90;45.30
49441;DHT22;35317;51.978;6.296;2023-07-02T16:22:06;23.70;45.70
49441;DHT22;35317;51.978;6.296;2023-07-02T16:27:09;23.60;45.90
49441;DHT22;35317;51.978;6.296;2023-07-02T16:32:13;23.40;46.50
49441;DHT22;35317;51.978;6.296;2023-07-02T16:37:14;23.40;47.00
49441;DHT22;35317;51.978;6.296;2023-07-02T16:42:15;23.40;47.10
49441;DHT22;35317;51.978;6.296;2023-07-02T16:47:16;23.40;47.20
49441;DHT22;35317;51.978;6.296;2023-07-02T16:52:17;23.50;47.60
49441;DHT22;35317;51.978;6.296;2023-07-02T16:57:18;23.70;47.50
49441;DHT22;35317;51.978;6.296;2023-07-02T17:02:19;23.70;47.90
49441;DHT22;35317;51.978;6.296;2023-07-02T17:07:24;23.60;47.70
49441;DHT22;35317;51.978;6.296;2023-07-02T17:12:25;23.40;48.00
49441;DHT22;35317;51.978;6.296;2023-07-02T17:17:26;23.30;48.60
49441;DHT22;35317;51.978;6.296;2023-07-02T17:22:30;23.30;48.80
49441;DHT22;35317;51.978;6.296;2023-07-02T17:27:31;23.20;49.10
49441;DHT22;35317;51.978;6.296;2023-07-02T17:32:32;23.10;49.70
49441;DHT22;35317;51.978;6.296;2023-07-02T17:37:33;22.90;50.00
49441;DHT22;35317;51.978;6.296;2023-07-02T17:42:35;22.50;50.60
49441;DHT22;35317;51.978;6.296;2023-07-02T17:47:36;22.40;51.30
49441;DHT22;35317;51.978;6.296;2023-07-02T17:52:37;22.10;51.60
49441;DHT22;35317;51.978;6.296;2023-07-02T17:57:38;22.00;52.00
49441;DHT22;35317;51.978;6.296;2023-07-02T18:02:39;21.90;52.40
49441;DHT22;35317;51.978;6.296;2023-07-02T18:07:40;21.80;53.00
49441;DHT22;35317;51.978;6.296;2023-07-02T18:12:41;21.70;53.40
49441;DHT22;35317;51.978;6.296;2023-07-02T18:17:41;21.70;53.50
49441;DHT22;35317;51.978;6.296;2023-07-02T18:22:42;21.60;54.00
49441;DHT22;35317;51.978;6.296;2023-07-02T18:27:43;21.40;54.60
49441;DHT22;35317;51.978;6.296;2023-07-02T18:32:44;21.30;55.00
49441;DHT22;35317;51.978;6.296;2023-07-02T18:37:44;21.20;55.50
49441;DHT22;35317;51.978;6.296;2023-07-02T18:42:46;21.00;55.70
49441;DHT22;35317;51.978;6.296;2023-07-02T18:47:48;20.90;56.00
49441;DHT22;35317;51.978;6.296;2023-07-02T18:52:51;20.70;56.40
49441;DHT22;35317;51.978;6.296;2023-07-02T18:57:52;20.70;56.80
49441;DHT22;35317;51.978;6.296;2023-07-02T19:02:53;20.60;57.20
49441;DHT22;35317;51.978;6.296;2023-07-02T19:07:54;20.50;57.60
49441;DHT22;35317;51.978;6.296;2023-07-02T19:12:54;20.40;57.90
49441;DHT22;35317;51.978;6.296;2023-07-02T19:17:57;20.30;58.30
49441;DHT22;35317;51.978;6.296;2023-07-02T19:22:58;20.20;58.50
49441;DHT22;35317;51.978;6.296;2023-07-02T19:28:00;20.10;58.80
49441;DHT22;35317;51.978;6.296;2023-07-02T19:33:00;20.00;59.10
49441;DHT22;35317;51.978;6.296;2023-07-02T19:38:01;20.00;60.10
49441;DHT22;35317;51.978;6.296;2023-07-02T19:43:02;19.90;59.80
49441;DHT22;35317;51.978;6.296;2023-07-02T19:48:03;19.90;60.20
49441;DHT22;35317;51.978;6.296;2023-07-02T19:53:05;19.80;60.60
49441;DHT22;35317;51.978;6.296;2023-07-02T19:58:05;19.70;61.20
49441;DHT22;35317;51.978;6.296;2023-07-02T20:03:06;19.60;61.50
49441;DHT22;35317;51.978;6.296;2023-07-02T20:08:08;19.60;61.90
49441;DHT22;35317;51.978;6.296;2023-07-02T20:13:09;19.60;62.40
49441;DHT22;35317;51.978;6.296;2023-07-02T20:18:12;19.60;62.90
49441;DHT22;35317;51.978;6.296;2023-07-02T20:23:13;19.50;63.20
49441;DHT22;35317;51.978;6.296;2023-07-02T20:28:14;19.50;63.50
49441;DHT22;35317;51.978;6.296;2023-07-02T20:33:14;19.40;63.90
49441;DHT22;35317;51.978;6.296;2023-07-02T20:38:15;19.40;64.20
49441;DHT22;35317;51.978;6.296;2023-07-02T20:43:16;19.30;64.40
49441;DHT22;35317;51.978;6.296;2023-07-02T20:48:17;19.30;64.70
49441;DHT22;35317;51.978;6.296;2023-07-02T20:53:18;19.20;65.00
49441;DHT22;35317;51.978;6.296;2023-07-02T20:58:18;19.20;65.10
49441;DHT22;35317;51.978;6.296;2023-07-02T21:03:19;19.10;65.50
49441;DHT22;35317;51.978;6.296;2023-07-02T21:08:20;19.00;65.70
49441;DHT22;35317;51.978;6.296;2023-07-02T21:13:21;19.00;66.10
49441;DHT22;35317;51.978;6.296;2023-07-02T21:18:21;19.00;66.40
49441;DHT22;35317;51.978;6.296;2023-07-02T21:23:23;19.00;66.60
49441;DHT22;35317;51.978;6.296;2023-07-02T21:28:24;18.90;66.80
49441;DHT22;35317;51.978;6.296;2023-07-02T21:33:25;18.90;67.20
49441;DHT22;35317;51.978;6.296;2023-07-02T21:38:27;18.80;67.50
49441;DHT22;35317;51.978;6.296;2023-07-02T21:43:28;18.80;67.90
49441;DHT22;35317;51.978;6.296;2023-07-02T21:48:29;18.80;68.50
49441;DHT22;35317;51.978;6.296;2023-07-02T21:53:30;18.70;69.30
49441;DHT22;35317;51.978;6.296;2023-07-02T21:58:31;18.70;68.90
49441;DHT22;35317;51.978;6.296;2023-07-02T22:03:32;18.70;69.00
49441;DHT22;35317;51.978;6.296;2023-07-02T22:08:33;18.70;69.60
49441;DHT22;35317;51.978;6.296;2023-07-02T22:13:34;18.60;70.10
49441;DHT22;35317;51.978;6.296;2023-07-02T22:18:35;18.60;70.20
49441;DHT22;35317;51.978;6.296;2023-07-02T22:23:37;18.60;70.80
49441;DHT22;35317;51.978;6.296;2023-07-02T22:28:38;18.60;71.00
49441;DHT22;35317;51.978;6.296;2023-07-02T22:33:39;18.60;71.20
49441;DHT22;35317;51.978;6.296;2023-07-02T22:38:39;18.50;71.40
49441;DHT22;35317;51.978;6.296;2023-07-02T22:43:40;18.50;72.00
49441;DHT22;35317;51.978;6.296;2023-07-02T22:48:41;18.50;72.50
49441;DHT22;35317;51.978;6.296;2023-07-02T22:53:42;18.50;72.80
49441;DHT22;35317;51.978;6.296;2023-07-02T22:58:43;18.50;73.20
49441;DHT22;35317;51.978;6.296;2023-07-02T23:03:44;18.50;73.70
49441;DHT22;35317;51.978;6.296;2023-07-02T23:08:45;18.50;73.90
49441;DHT22;35317;51.978;6.296;2023-07-02T23:13:46;18.50;74.40
49441;DHT22;35317;51.978;6.296;2023-07-02T23:18:46;18.40;74.70
49441;DHT22;35317;51.978;6.296;2023-07-02T23:23:47;18.50;75.00
49441;DHT22;35317;51.978;6.296;2023-07-02T23:28:48;18.40;75.30
49441;DHT22;35317;51.978;6.296;2023-07-02T23:33:53;18.30;75.60
49441;DHT22;35317;51.978;6.296;2023-07-02T23:38:54;18.30;76.00
49441;DHT22;35317;51.978;6.296;2023-07-02T23:43:55;18.30;76.30
49441;DHT22;35317;51.978;6.296;2023-07-02T23:48:56;18.30;76.50
49441;DHT22;35317;51.978;6.296;2023-07-02T23:53:58;18.30;77.20
49441;DHT22;35317;51.978;6.296;2023-07-02T23:58:59;18.20;76.80
